Time,TemperatureF,DewpointF,PressureIn,WindDirection,WindDirectionDegrees,WindSpeedMPH,WindSpeedGustMPH,Humidity,HourlyPrecipIn,Conditions,Clouds,dailyrainin,SoftwareType,DateUTC
2013-07-30 00:00:00,66.9,62.6,30.01,WNW,300,4.6,4.6,86,0.00,CLR,OVC,0.00,WeatherDisplay:10.37,2013-07-30 04:00:00,
2013-07-30 00:01:00,66.9,62.6,30.01,WNW,300,4.6,4.6,86,0.00,CLR,OVC,0.00,WeatherDisplay:10.37,2013-07-30 04:01:00,
2013-07-30 00:03:00,66.9,62.6,30.01,WNW,300,4.6,4.6,86,0.00,CLR,OVC,0.00,WeatherDisplay:10.37,2013-07-30 04:03:00,
2013-07-30 00:08:00,66.7,62.4,30.01,WNW,300,4.6,4.6,86,0.00,CLR,OVC,0.00,WeatherDisplay:10.37,2013-07-30 04:08:00,
2013-07-30 00:13:00,66.7,62.4,30.01,WNW,300,4.6,4.6,86,0.00,CLR,OVC,0.00,WeatherDisplay:10.37,2013-07-30 04:13:00,
2013-07-30 00:18:00,66.7,62.4,30.01,NW,320,4.6,4.6,86,0.00,CLR,OVC,0.00,WeatherDisplay:10.37,2013-07-30 04:18:00,
2013-07-30 00:23:00,66.7,62.4,30.01,NW,320,4.6,4.6,86,0.00,CLR,OVC,0.00,WeatherDisplay:10.37,2013-07-30 04:23:00,
2013-07-30 00:28:00,66.6,62.6,30.01,NW,320,4.6,4.6,87,0.00,CLR,OVC,0.00,WeatherDisplay:10.37,2013-07-30 04:28:00,
2013-07-30 00:33:00,66.6,62.6,30.01,NW,320,4.6,4.6,87,0.00,CLR,OVC,0.00,WeatherDisplay:10.37,2013-07-30 04:33:00,
2013-07-30 00:38:00,66.4,62.4,30.01,NW,320,4.6,4.6,87,0.00,CLR,OVC,0.00,WeatherDisplay:10.37,2013-07-30 04:38:00,
2013-07-30 00:43:00,66.2,62.2,30.01,NW,320,4.6,4.6,87,0.00,CLR,OVC,0.00,WeatherDisplay:10.37,2013-07-30 04:43:00,
2013-07-30 00:48:00,66.0,62.0,30.01,NW,320,4.6,4.6,87,0.00,CLR,OVC,0.00,WeatherDisplay:10.37,2013-07-30 04:48:00,
2013-07-30 00:53:00,66.0,62.0,30.01,NW,320,4.6,4.6,87,0.00,CLR,OVC,0.00,WeatherDisplay:10.37,2013-07-30 04:53:00,
2013-07-30 00:58:00,65.8,61.9,30.00,NW,320,4.6,4.6,87,0.00,CLR,OVC,0.00,WeatherDisplay:10.37,2013-07-30 04:58:00,
2013-07-30 01:03:00,65.7,61.7,30.00,NW,320,4.6,4.6,87,0.00,CLR,OVC,0.00,WeatherDisplay:10.37,2013-07-30 05:03:00,
2013-07-30 01:08:00,65.7,61.7,30.00,NW,320,4.6,4.6,87,0.00,CLR,OVC,0.00,WeatherDisplay:10.37,2013-07-30 05:08:00,
2013-07-30 01:13:00,65.7,61.7,30.00,NW,320,4.6,4.6,87,0.00,CLR,OVC,0.00,WeatherDisplay:10.37,2013-07-30 05:13:00,
2013-07-30 01:18:00,65.5,61.5,30.00,NNW,330,5.8,5.8,87,0.00,CLR,OVC,0.00,WeatherDisplay:10.37,2013-07-30 05:18:00,
2013-07-30 01:23:00,65.3,61.3,30.01,NNW,330,5.8,5.8,87,0.00,CLR,OVC,0.00,WeatherDisplay:10.37,2013-07-30 05:23:00,
2013-07-30 01:28:00,65.3,61.3,30.01,NNW,330,5.8,5.8,87,0.00,CLR,OVC,0.00,WeatherDisplay:10.37,2013-07-30 05:28:00,
2013-07-30 01:33:00,65.1,61.2,30.00,NNW,330,5.8,5.8,87,0.00,CLR,OVC,0.00,WeatherDisplay:10.37,2013-07-30 05:33:00,
2013-07-30 01:38:00,65.1,61.2,30.00,NNW,330,5.8,5.8,87,0.00,CLR,OVC,0.00,WeatherDisplay:10.37,2013-07-30 05:38:00,
2013-07-30 01:43:00,65.1,61.2,30.00,NNW,330,5.8,5.8,87,0.00,CLR,OVC,0.00,WeatherDisplay:10.37,2013-07-30 05:43:00,
2013-07-30 01:48:00,64.9,61.0,30.00,NNW,330,5.8,5.8,87,0.00,CLR,OVC,0.00,WeatherDisplay:10.37,2013-07-30 05:48:00,
2013-07-30 01:53:00,64.9,61.0,30.00,NNW,330,5.8,5.8,87,0.00,CLR,OVC,0.00,WeatherDisplay:10.37,2013-07-30 05:53:00,
2013-07-30 01:58:00,64.9,61.3,29.99,NNW,330,5.8,5.8,88,0.00,CLR,OVC,0.00,WeatherDisplay:10.37,2013-07-30 05:58:00,
2013-07-30 02:03:00,64.8,61.1,29.99,NNW,330,5.8,5.8,88,0.00,CLR,OVC,0.00,WeatherDisplay:10.37,2013-07-30 06:03:00,
2013-07-30 02:08:00,64.8,61.1,29.99,NNW,330,5.8,5.8,88,0.00,CLR,OVC,0.00,WeatherDisplay:10.37,2013-07-30 06:08:00,
2013-07-30 02:13:00,64.8,61.1,29.99,NNW,330,5.8,5.8,88,0.00,CLR,OVC,0.00,WeatherDisplay:10.37,2013-07-30 06:13:00,
2013-07-30 02:18:00,64.6,60.9,29.99,North,350,5.8,5.8,88,0.00,CLR,OVC,0.00,WeatherDisplay:10.37,2013-07-30 06:18:00,
2013-07-30 02:23:00,64.2,60.6,29.99,North,350,3.5,3.5,88,0.00,CLR,OVC,0.00,WeatherDisplay:10.37,2013-07-30 06:23:00,
2013-07-30 02:28:00,64.2,60.6,29.99,North,350,3.5,3.5,88,0.00,CLR,OVC,0.00,WeatherDisplay:10.37,2013-07-30 06:28:00,
2013-07-30 02:33:00,64.2,60.6,29.99,North,350,3.5,3.5,88,0.00,CLR,OVC,0.00,WeatherDisplay:10.37,2013-07-30 06:33:00,
2013-07-30 02:38:00,64.2,60.6,29.99,North,350,3.5,3.5,88,0.00,CLR,OVC,0.00,WeatherDisplay:10.37,2013-07-30 06:38:00,
2013-07-30 02:43:00,64.2,60.6,29.99,North,350,3.5,3.5,88,0.00,CLR,OVC,0.00,WeatherDisplay:10.37,2013-07-30 06:43:00,
2013-07-30 02:48:00,64.0,60.4,29.99,North,350,3.5,3.5,88,0.00,CLR,OVC,0.00,WeatherDisplay:10.37,2013-07-30 06:48:00,
2013-07-30 02:53:00,64.0,60.4,29.99,North,350,3.5,3.5,88,0.00,CLR,OVC,0.00,WeatherDisplay:10.37,2013-07-30 06:53:00,
2013-07-30 02:58:00,63.7,60.4,29.99,North,350,3.5,3.5,89,0.00,CLR,OVC,0.00,WeatherDisplay:10.37,2013-07-30 06:58:00,
2013-07-30 03:03:00,63.7,60.4,29.99,North,350,3.5,3.5,89,0.00,CLR,OVC,0.00,WeatherDisplay:10.37,2013-07-30 07:03:00,
2013-07-30 03:08:00,63.7,60.4,29.99,North,350,3.5,3.5,89,0.00,CLR,OVC,0.00,WeatherDisplay:10.37,2013-07-30 07:08:00,
2013-07-30 03:13:00,63.5,60.2,29.99,North,350,3.5,3.5,89,0.00,CLR,OVC,0.00,WeatherDisplay:10.37,2013-07-30 07:13:00,
2013-07-30 03:18:00,63.5,60.2,30.00,North,350,0.0,0.0,89,0.00,CLR,OVC,0.00,WeatherDisplay:10.37,2013-07-30 07:18:00,
2013-07-30 03:23:00,63.5,60.2,30.00,North,350,0.0,0.0,89,0.00,CLR,OVC,0.00,WeatherDisplay:10.37,2013-07-30 07:23:00,
2013-07-30 03:28:00,63.5,60.2,30.00,North,350,0.0,0.0,89,0.00,CLR,OVC,0.00,WeatherDisplay:10.37,2013-07-30 07:28:00,
2013-07-30 03:33:00,63.5,60.2,29.99,North,350,0.0,0.0,89,0.00,CLR,OVC,0.00,WeatherDisplay:10.37,2013-07-30 07:33:00,
2013-07-30 03:38:00,63.3,60.0,29.99,North,350,0.0,0.0,89,0.00,CLR,OVC,0.00,WeatherDisplay:10.37,2013-07-30 07:38:00,
2013-07-30 03:43:00,63.3,60.0,29.99,North,350,0.0,0.0,89,0.00,CLR,OVC,0.00,WeatherDisplay:10.37,2013-07-30 07:43:00,
2013-07-30 03:48:00,63.1,59.8,29.99,North,350,0.0,0.0,89,0.00,CLR,OVC,0.00,WeatherDisplay:10.37,2013-07-30 07:48:00,
2013-07-30 03:53:00,63.1,59.8,29.99,North,350,0.0,0.0,89,0.00,CLR,OVC,0.00,WeatherDisplay:10.37,2013-07-30 07:53:00,
2013-07-30 03:58:00,63.1,59.8,29.99,North,350,0.0,0.0,89,0.00,CLR,OVC,0.00,WeatherDisplay:10.37,2013-07-30 07:58:00,
2013-07-30 04:03:00,63.1,59.8,30.00,North,350,0.0,0.0,89,0.00,CLR,OVC,0.00,WeatherDisplay:10.37,2013-07-30 08:03:00,
2013-07-30 04:08:00,63.1,59.8,30.00,North,350,0.0,0.0,89,0.00,CLR,OVC,0.00,WeatherDisplay:10.37,2013-07-30 08:08:00,
2013-07-30 04:13:00,63.1,59.8,30.01,North,350,0.0,0.0,89,0.00,CLR,OVC,0.00,WeatherDisplay:10.37,2013-07-30 08:13:00,
2013-07-30 04:18:00,63.1,59.8,30.01,North,350,0.0,0.0,89,0.00,CLR,OVC,0.00,WeatherDisplay:10.37,2013-07-30 08:18:00,
2013-07-30 04:23:00,63.1,59.8,30.01,North,350,0.0,0.0,89,0.00,CLR,OVC,0.00,WeatherDisplay:10.37,2013-07-30 08:23:00,
2013-07-30 04:28:00,63.1,60.2,30.00,North,350,0.0,0.0,90,0.00,CLR,OVC,0.00,WeatherDisplay:10.37,2013-07-30 08:28:00,
2013-07-30 04:33:00,63.1,60.2,30.00,North,350,0.0,0.0,90,0.00,CLR,OVC,0.00,WeatherDisplay:10.37,2013-07-30 08:33:00,
2013-07-30 04:38:00,63.1,60.2,30.00,North,350,0.0,0.0,90,0.00,CLR,OVC,0.00,WeatherDisplay:10.37,2013-07-30 08:38:00,
2013-07-30 04:43:00,63.1,60.2,30.00,North,350,0.0,0.0,90,0.00,CLR,OVC,0.00,WeatherDisplay:10.37,2013-07-30 08:43:00,
2013-07-30 04:48:00,63.1,60.2,30.00,North,350,0.0,0.0,90,0.00,CLR,OVC,0.00,WeatherDisplay:10.37,2013-07-30 08:48:00,
2013-07-30 04:53:00,63.1,60.2,30.01,North,350,0.0,0.0,90,0.00,CLR,OVC,0.00,WeatherDisplay:10.37,2013-07-30 08:53:00,
2013-07-30 04:58:00,63.0,60.0,30.01,North,350,0.0,0.0,90,0.00,CLR,OVC,0.00,WeatherDisplay:10.37,2013-07-30 08:58:00,
2013-07-30 05:03:00,63.0,60.0,30.01,North,350,0.0,0.0,90,0.00,CLR,OVC,0.00,WeatherDisplay:10.37,2013-07-30 09:03:00,
2013-07-30 05:08:00,63.0,60.0,30.01,North,350,0.0,0.0,90,0.00,CLR,OVC,0.00,WeatherDisplay:10.37,2013-07-30 09:08:00,
2013-07-30 05:13:00,63.0,60.0,30.01,North,350,0.0,0.0,90,0.00,CLR,OVC,0.00,WeatherDisplay:10.37,2013-07-30 09:13:00,
2013-07-30 05:18:00,62.8,59.8,30.01,North,350,0.0,0.0,90,0.00,CLR,OVC,0.00,WeatherDisplay:10.37,2013-07-30 09:18:00,
2013-07-30 05:23:00,62.6,59.6,30.02,North,350,0.0,0.0,90,0.00,CLR,OVC,0.00,WeatherDisplay:10.37,2013-07-30 09:23:00,
2013-07-30 05:28:00,62.4,59.4,30.02,North,350,0.0,0.0,90,0.00,CLR,OVC,0.00,WeatherDisplay:10.37,2013-07-30 09:28:00,
2013-07-30 05:33:00,62.4,59.4,30.02,North,350,0.0,0.0,90,0.00,CLR,OVC,0.00,WeatherDisplay:10.37,2013-07-30 09:33:00,
2013-07-30 05:38:00,62.4,59.4,30.02,North,350,0.0,0.0,90,0.00,CLR,OVC,0.00,WeatherDisplay:10.37,2013-07-30 09:38:00,
2013-07-30 05:43:00,62.2,59.3,30.02,North,350,0.0,0.0,90,0.00,CLR,OVC,0.00,WeatherDisplay:10.37,2013-07-30 09:43:00,
2013-07-30 05:48:00,62.2,59.3,30.02,North,350,0.0,0.0,90,0.00,CLR,OVC,0.00,WeatherDisplay:10.37,2013-07-30 09:48:00,
2013-07-30 05:53:00,62.1,59.1,30.02,North,350,0.0,0.0,90,0.00,CLR,OVC,0.00,WeatherDisplay:10.37,2013-07-30 09:53:00,
2013-07-30 05:58:00,62.1,59.1,30.02,North,350,0.0,0.0,90,0.00,CLR,OVC,0.00,WeatherDisplay:10.37,2013-07-30 09:58:00,
2013-07-30 06:03:00,62.1,59.1,30.02,North,350,0.0,0.0,90,0.00,CLR,OVC,0.00,WeatherDisplay:10.37,2013-07-30 10:03:00,
2013-07-30 06:08:00,61.9,58.9,30.03,North,350,0.0,0.0,90,0.00,CLR,OVC,0.00,WeatherDisplay:10.37,2013-07-30 10:08:00,
2013-07-30 06:13:00,61.9,58.9,30.03,North,350,0.0,0.0,90,0.00,CLR,OVC,0.00,WeatherDisplay:10.37,2013-07-30 10:13:00,
2013-07-30 06:18:00,61.7,58.7,30.03,North,350,0.0,0.0,90,0.00,CLR,OVC,0.00,WeatherDisplay:10.37,2013-07-30 10:18:00,
2013-07-30 06:23:00,61.7,58.7,30.03,North,350,0.0,0.0,90,0.00,CLR,OVC,0.00,WeatherDisplay:10.37,2013-07-30 10:23:00,
2013-07-30 06:28:00,61.7,58.7,30.03,North,350,0.0,0.0,90,0.00,CLR,OVC,0.00,WeatherDisplay:10.37,2013-07-30 10:28:00,
2013-07-30 06:33:00,61.7,58.7,30.04,North,350,0.0,0.0,90,0.00,CLR,OVC,0.00,WeatherDisplay:10.37,2013-07-30 10:33:00,
2013-07-30 06:38:00,61.5,58.6,30.04,North,350,0.0,0.0,90,0.00,CLR,OVC,0.00,WeatherDisplay:10.37,2013-07-30 10:38:00,
2013-07-30 06:43:00,61.5,58.6,30.04,North,350,0.0,0.0,90,0.00,CLR,OVC,0.00,WeatherDisplay:10.37,2013-07-30 10:43:00,
2013-07-30 06:48:00,61.5,58.6,30.04,North,350,0.0,0.0,90,0.00,CLR,OVC,0.00,WeatherDisplay:10.37,2013-07-30 10:48:00,
2013-07-30 06:54:00,61.5,58.6,30.04,North,350,0.0,0.0,90,0.00,CLR,OVC,0.00,WeatherDisplay:10.37,2013-07-30 10:54:00,
2013-07-30 06:59:00,61.3,58.4,30.04,North,350,0.0,0.0,90,0.00,CLR,OVC,0.00,WeatherDisplay:10.37,2013-07-30 10:59:00,
2013-07-30 07:04:00,61.3,58.4,30.04,North,350,0.0,0.0,90,0.00,CLR,OVC,0.00,WeatherDisplay:10.37,2013-07-30 11:04:00,
2013-07-30 07:09:00,61.3,58.4,30.04,North,350,0.0,0.0,90,0.00,CLR,OVC,0.00,WeatherDisplay:10.37,2013-07-30 11:09:00,
2013-07-30 07:14:00,61.3,58.4,30.04,North,350,0.0,0.0,90,0.00,CLR,OVC,0.00,WeatherDisplay:10.37,2013-07-30 11:14:00,
2013-07-30 07:19:00,61.3,58.4,30.04,NNW,340,3.5,3.5,90,0.00,CLR,OVC,0.00,WeatherDisplay:10.37,2013-07-30 11:19:00,
2013-07-30 07:24:00,61.3,58.4,30.04,NNW,340,3.5,3.5,90,0.00,CLR,OVC,0.00,WeatherDisplay:10.37,2013-07-30 11:24:00,
2013-07-30 07:29:00,61.3,58.4,30.04,NNW,340,3.5,3.5,90,0.00,CLR,OVC,0.00,WeatherDisplay:10.37,2013-07-30 11:29:00,
2013-07-30 07:34:00,61.5,58.6,30.05,NNW,340,3.5,3.5,90,0.00,CLR,OVC,0.00,WeatherDisplay:10.37,2013-07-30 11:34:00,
2013-07-30 07:39:00,61.5,58.9,30.05,NNW,340,3.5,3.5,91,0.00,CLR,OVC,0.00,WeatherDisplay:10.37,2013-07-30 11:39:00,
2013-07-30 07:44:00,61.5,58.9,30.05,NNW,340,3.5,3.5,91,0.00,CLR,OVC,0.00,WeatherDisplay:10.37,2013-07-30 11:44:00,
2013-07-30 07:49:00,61.7,59.0,30.05,NNW,340,3.5,3.5,91,0.00,CLR,OVC,0.00,WeatherDisplay:10.37,2013-07-30 11:49:00,
2013-07-30 07:54:00,61.9,59.2,30.05,NNW,340,3.5,3.5,91,0.00,CLR,OVC,0.00,WeatherDisplay:10.37,2013-07-30 11:54:00,
2013-07-30 07:59:00,62.1,59.4,30.05,NNW,340,3.5,3.5,91,0.00,CLR,OVC,0.00,WeatherDisplay:10.37,2013-07-30 11:59:00,
2013-07-30 08:04:00,62.1,59.4,30.05,NNW,340,3.5,3.5,91,0.00,CLR,OVC,0.00,WeatherDisplay:10.37,2013-07-30 12:04:00,
2013-07-30 08:09:00,62.2,59.6,30.05,NNW,340,3.5,3.5,91,0.00,CLR,OVC,0.00,WeatherDisplay:10.37,2013-07-30 12:09:00,
2013-07-30 08:14:00,62.4,59.8,30.05,NNW,340,3.5,3.5,91,0.00,CLR,OVC,0.00,WeatherDisplay:10.37,2013-07-30 12:14:00,
2013-07-30 08:19:00,62.4,59.8,30.05,NNW,340,3.5,3.5,91,0.00,CLR,OVC,0.00,WeatherDisplay:10.37,2013-07-30 12:19:00,
2013-07-30 08:24:00,62.6,59.9,30.06,NNW,340,3.5,3.5,91,0.00,CLR,OVC,0.00,WeatherDisplay:10.37,2013-07-30 12:24:00,
2013-07-30 08:29:00,63.0,60.6,30.06,NNW,340,3.5,3.5,92,0.00,CLR,OVC,0.00,WeatherDisplay:10.37,2013-07-30 12:29:00,
2013-07-30 08:34:00,63.0,60.6,30.06,NNW,340,3.5,3.5,92,0.00,CLR,OVC,0.00,WeatherDisplay:10.37,2013-07-30 12:34:00,
2013-07-30 08:39:00,63.3,61.0,30.05,NNW,340,3.5,3.5,92,0.00,CLR,OVC,0.00,WeatherDisplay:10.37,2013-07-30 12:39:00,
2013-07-30 08:44:00,63.5,61.1,30.06,NNW,340,3.5,3.5,92,0.00,CLR,OVC,0.00,WeatherDisplay:10.37,2013-07-30 12:44:00,
2013-07-30 08:49:00,63.7,61.3,30.05,NNW,340,3.5,3.5,92,0.00,CLR,OVC,0.00,WeatherDisplay:10.37,2013-07-30 12:49:00,
2013-07-30 08:54:00,63.9,61.5,30.05,NNW,340,3.5,3.5,92,0.00,CLR,OVC,0.00,WeatherDisplay:10.37,2013-07-30 12:54:00,
2013-07-30 08:59:00,64.2,61.8,30.05,NNW,340,3.5,3.5,92,0.00,CLR,OVC,0.00,WeatherDisplay:10.37,2013-07-30 12:59:00,
2013-07-30 09:04:00,64.4,62.0,30.05,NNW,340,3.5,3.5,92,0.00,CLR,OVC,0.00,WeatherDisplay:10.37,2013-07-30 13:04:00,
2013-07-30 09:09:00,64.6,62.2,30.05,NNW,340,3.5,3.5,92,0.00,CLR,OVC,0.00,WeatherDisplay:10.37,2013-07-30 13:09:00,
2013-07-30 09:14:00,64.9,62.6,30.06,NNW,340,3.5,3.5,92,0.00,CLR,OVC,0.00,WeatherDisplay:10.37,2013-07-30 13:14:00,
2013-07-30 09:19:00,65.1,62.7,30.06,NE,40,4.6,4.6,92,0.00,CLR,OVC,0.00,WeatherDisplay:10.37,2013-07-30 13:19:00,
2013-07-30 09:24:00,65.3,62.6,30.06,NE,40,4.6,4.6,91,0.00,CLR,OVC,0.00,WeatherDisplay:10.37,2013-07-30 13:24:00,
2013-07-30 09:29:00,65.5,63.1,30.06,NE,40,4.6,4.6,92,0.00,CLR,OVC,0.00,WeatherDisplay:10.37,2013-07-30 13:29:00,
2013-07-30 09:34:00,65.8,63.1,30.06,NE,40,4.6,4.6,91,0.00,CLR,OVC,0.00,WeatherDisplay:10.37,2013-07-30 13:34:00,
2013-07-30 09:39:00,66.0,63.3,30.06,NE,40,4.6,4.6,91,0.00,CLR,OVC,0.00,WeatherDisplay:10.37,2013-07-30 13:39:00,
2013-07-30 09:44:00,66.4,63.7,30.06,NE,40,4.6,4.6,91,0.00,CLR,OVC,0.00,WeatherDisplay:10.37,2013-07-30 13:44:00,
2013-07-30 09:49:00,66.7,64.0,30.06,NE,40,4.6,4.6,91,0.00,CLR,OVC,0.00,WeatherDisplay:10.37,2013-07-30 13:49:00,
2013-07-30 09:54:00,66.9,64.2,30.05,NE,40,4.6,4.6,91,0.00,CLR,OVC,0.00,WeatherDisplay:10.37,2013-07-30 13:54:00,
2013-07-30 09:59:00,67.6,64.9,30.05,NE,40,4.6,4.6,91,0.00,CLR,OVC,0.00,WeatherDisplay:10.37,2013-07-30 13:59:00,
2013-07-30 10:04:00,67.8,65.1,30.05,NE,40,4.6,4.6,91,0.00,CLR,OVC,0.00,WeatherDisplay:10.37,2013-07-30 14:04:00,
2013-07-30 10:09:00,67.8,65.1,30.05,NE,40,4.6,4.6,91,0.00,CLR,OVC,0.00,WeatherDisplay:10.37,2013-07-30 14:09:00,
2013-07-30 10:14:00,68.2,65.5,30.05,NE,40,4.6,4.6,91,0.00,CLR,OVC,0.00,WeatherDisplay:10.37,2013-07-30 14:14:00,
2013-07-30 10:19:00,69.1,66.0,30.05,East,80,5.8,5.8,90,0.00,CLR,OVC,0.00,WeatherDisplay:10.37,2013-07-30 14:19:00,
2013-07-30 10:24:00,69.6,66.6,30.05,East,80,5.8,5.8,90,0.00,CLR,OVC,0.00,WeatherDisplay:10.37,2013-07-30 14:24:00,
2013-07-30 10:29:00,70.5,67.1,30.04,East,80,5.8,5.8,89,0.00,CLR,OVC,0.00,WeatherDisplay:10.37,2013-07-30 14:29:00,
2013-07-30 10:34:00,70.7,67.3,30.05,East,80,5.8,5.8,89,0.00,CLR,OVC,0.00,WeatherDisplay:10.37,2013-07-30 14:34:00,
2013-07-30 10:39:00,71.2,67.8,30.05,East,80,5.8,5.8,89,0.00,CLR,OVC,0.00,WeatherDisplay:10.37,2013-07-30 14:39:00,
2013-07-30 10:44:00,71.4,68.0,30.04,East,80,5.8,5.8,89,0.00,CLR,OVC,0.00,WeatherDisplay:10.37,2013-07-30 14:44:00,
2013-07-30 10:49:00,71.8,68.0,30.04,East,80,5.8,5.8,88,0.00,CLR,OVC,0.00,WeatherDisplay:10.37,2013-07-30 14:49:00,
2013-07-30 10:54:00,72.1,68.4,30.04,East,80,5.8,5.8,88,0.00,CLR,OVC,0.00,WeatherDisplay:10.37,2013-07-30 14:54:00,
2013-07-30 10:59:00,72.7,68.9,30.04,East,80,5.8,5.8,88,0.00,CLR,OVC,0.00,WeatherDisplay:10.37,2013-07-30 14:59:00,
2013-07-30 11:04:00,73.2,69.5,30.04,East,80,5.8,5.8,88,0.00,CLR,OVC,0.00,WeatherDisplay:10.37,2013-07-30 15:04:00,
2013-07-30 11:09:00,73.6,69.5,30.04,East,80,5.8,5.8,87,0.00,CLR,OVC,0.00,WeatherDisplay:10.37,2013-07-30 15:09:00,
2013-07-30 11:14:00,74.1,69.7,30.04,East,80,5.8,5.8,86,0.00,CLR,OVC,0.00,WeatherDisplay:10.37,2013-07-30 15:14:00,
2013-07-30 11:19:00,74.5,69.7,30.04,ENE,60,5.8,5.8,85,0.00,CLR,OVC,0.00,WeatherDisplay:10.37,2013-07-30 15:19:00,
2013-07-30 11:24:00,75.0,70.2,30.04,ENE,60,5.8,5.8,85,0.00,CLR,OVC,0.00,WeatherDisplay:10.37,2013-07-30 15:24:00,
2013-07-30 11:29:00,75.7,70.6,30.04,ENE,60,5.8,5.8,84,0.00,CLR,OVC,0.00,WeatherDisplay:10.37,2013-07-30 15:29:00,
2013-07-30 11:34:00,76.1,70.2,30.04,ENE,60,5.8,5.8,82,0.00,CLR,OVC,0.00,WeatherDisplay:10.37,2013-07-30 15:34:00,
2013-07-30 11:39:00,76.5,70.2,30.04,ENE,60,5.8,5.8,81,0.00,CLR,OVC,0.00,WeatherDisplay:10.37,2013-07-30 15:39:00,
2013-07-30 11:44:00,77.2,70.5,30.04,ENE,60,5.8,5.8,80,0.00,CLR,OVC,0.00,WeatherDisplay:10.37,2013-07-30 15:44:00,
2013-07-30 11:49:00,77.5,70.9,30.04,ENE,60,5.8,5.8,80,0.00,CLR,OVC,0.00,WeatherDisplay:10.37,2013-07-30 15:49:00,
2013-07-30 11:54:00,77.5,70.5,30.04,ENE,60,5.8,5.8,79,0.00,CLR,OVC,0.00,WeatherDisplay:10.37,2013-07-30 15:54:00,
2013-07-30 11:59:00,78.1,70.7,30.03,ENE,60,5.8,5.8,78,0.00,CLR,OVC,0.00,WeatherDisplay:10.37,2013-07-30 15:59:00,
2013-07-30 12:04:00,78.4,71.0,30.03,ENE,60,5.8,5.8,78,0.00,CLR,OVC,0.00,WeatherDisplay:10.37,2013-07-30 16:04:00,
2013-07-30 12:09:00,78.6,71.2,30.04,ENE,60,5.8,5.8,78,0.00,CLR,OVC,0.00,WeatherDisplay:10.37,2013-07-30 16:09:00,
2013-07-30 12:14:00,78.6,70.8,30.04,ENE,60,5.8,5.8,77,0.00,CLR,OVC,0.00,WeatherDisplay:10.37,2013-07-30 16:14:00,
2013-07-30 12:19:00,78.6,70.8,30.04,ENE,60,5.8,5.8,77,0.00,CLR,OVC,0.00,WeatherDisplay:10.37,2013-07-30 16:19:00,
2013-07-30 12:24:00,78.6,70.0,30.04,ENE,60,5.8,5.8,75,0.00,CLR,OVC,0.00,WeatherDisplay:10.37,2013-07-30 16:24:00,
2013-07-30 12:29:00,79.2,69.4,30.04,ENE,60,5.8,5.8,72,0.00,CLR,OVC,0.00,WeatherDisplay:10.37,2013-07-30 16:29:00,
2013-07-30 12:34:00,79.5,69.7,30.03,ENE,60,5.8,5.8,72,0.00,CLR,OVC,0.00,WeatherDisplay:10.37,2013-07-30 16:34:00,
2013-07-30 12:39:00,79.5,70.1,30.03,ENE,60,5.8,5.8,73,0.00,CLR,OVC,0.00,WeatherDisplay:10.37,2013-07-30 16:39:00,
2013-07-30 12:44:00,79.7,71.1,30.03,ENE,60,5.8,5.8,75,0.00,CLR,OVC,0.00,WeatherDisplay:10.37,2013-07-30 16:44:00,
2013-07-30 12:49:00,79.7,71.5,30.03,ENE,60,5.8,5.8,76,0.00,CLR,OVC,0.00,WeatherDisplay:10.37,2013-07-30 16:49:00,
2013-07-30 12:54:00,79.7,71.1,30.03,ENE,60,5.8,5.8,75,0.00,CLR,OVC,0.00,WeatherDisplay:10.37,2013-07-30 16:54:00,
2013-07-30 12:59:00,80.1,71.4,30.04,ENE,60,5.8,5.8,75,0.00,CLR,OVC,0.00,WeatherDisplay:10.37,2013-07-30 16:59:00,
2013-07-30 13:04:00,80.4,71.4,30.03,ENE,60,5.8,5.8,74,0.00,CLR,OVC,0.00,WeatherDisplay:10.37,2013-07-30 17:04:00,
2013-07-30 13:09:00,80.8,71.3,30.03,ENE,60,5.8,5.8,73,0.00,CLR,OVC,0.00,WeatherDisplay:10.37,2013-07-30 17:09:00,
2013-07-30 13:14:00,81.1,71.3,30.03,ENE,60,5.8,5.8,72,0.00,CLR,OVC,0.00,WeatherDisplay:10.37,2013-07-30 17:14:00,
2013-07-30 13:19:00,81.3,70.6,30.03,ENE,70,3.5,3.5,70,0.00,CLR,OVC,0.00,WeatherDisplay:10.37,2013-07-30 17:19:00,
2013-07-30 13:24:00,81.7,70.9,30.02,ENE,70,3.5,3.5,70,0.00,CLR,OVC,0.00,WeatherDisplay:10.37,2013-07-30 17:24:00,
2013-07-30 13:29:00,82.2,70.6,30.02,ENE,70,3.5,3.5,68,0.00,CLR,OVC,0.00,WeatherDisplay:10.37,2013-07-30 17:29:00,
2013-07-30 13:34:00,82.6,71.4,30.03,ENE,70,3.5,3.5,69,0.00,CLR,OVC,0.00,WeatherDisplay:10.37,2013-07-30 17:34:00,
2013-07-30 13:39:00,82.6,70.9,30.02,ENE,70,3.5,3.5,68,0.00,CLR,OVC,0.00,WeatherDisplay:10.37,2013-07-30 17:39:00,
2013-07-30 13:44:00,82.9,70.9,30.02,ENE,70,3.5,3.5,67,0.00,CLR,OVC,0.00,WeatherDisplay:10.37,2013-07-30 17:44:00,
2013-07-30 13:49:00,82.9,70.4,30.03,ENE,70,3.5,3.5,66,0.00,CLR,OVC,0.00,WeatherDisplay:10.37,2013-07-30 17:49:00,
2013-07-30 13:54:00,83.1,69.7,30.02,ENE,70,3.5,3.5,64,0.00,CLR,OVC,0.00,WeatherDisplay:10.37,2013-07-30 17:54:00,
2013-07-30 13:59:00,83.5,70.5,30.02,ENE,70,3.5,3.5,65,0.00,CLR,OVC,0.00,WeatherDisplay:10.37,2013-07-30 17:59:00,
2013-07-30 14:04:00,84.0,71.4,30.01,ENE,70,3.5,3.5,66,0.00,CLR,OVC,0.00,WeatherDisplay:10.37,2013-07-30 18:04:00,
2013-07-30 14:09:00,84.0,71.0,30.01,ENE,70,3.5,3.5,65,0.00,CLR,OVC,0.00,WeatherDisplay:10.37,2013-07-30 18:09:00,
2013-07-30 14:14:00,84.4,71.3,30.01,ENE,70,3.5,3.5,65,0.00,CLR,OVC,0.00,WeatherDisplay:10.37,2013-07-30 18:14:00,
2013-07-30 14:19:00,84.6,70.1,30.01,ENE,70,3.5,3.5,62,0.00,CLR,OVC,0.00,WeatherDisplay:10.37,2013-07-30 18:19:00,
2013-07-30 14:24:00,84.7,71.2,30.01,ENE,70,3.5,3.5,64,0.00,CLR,OVC,0.00,WeatherDisplay:10.37,2013-07-30 18:24:00,
2013-07-30 14:29:00,84.9,71.8,30.01,ENE,70,3.5,3.5,65,0.00,CLR,OVC,0.00,WeatherDisplay:10.37,2013-07-30 18:29:00,
2013-07-30 14:34:00,84.9,70.4,30.01,ENE,70,3.5,3.5,62,0.00,CLR,OVC,0.00,WeatherDisplay:10.37,2013-07-30 18:34:00,
2013-07-30 14:39:00,85.1,71.1,30.01,ENE,70,3.5,3.5,63,0.00,CLR,OVC,0.00,WeatherDisplay:10.37,2013-07-30 18:39:00,
2013-07-30 14:44:00,85.3,71.7,30.01,ENE,70,3.5,3.5,64,0.00,CLR,OVC,0.00,WeatherDisplay:10.37,2013-07-30 18:44:00,
2013-07-30 14:49:00,85.3,70.8,30.01,ENE,70,3.5,3.5,62,0.00,CLR,OVC,0.00,WeatherDisplay:10.37,2013-07-30 18:49:00,
2013-07-30 14:54:00,85.3,70.8,30.01,ENE,70,3.5,3.5,62,0.00,CLR,OVC,0.00,WeatherDisplay:10.37,2013-07-30 18:54:00,
2013-07-30 14:59:00,85.3,70.8,30.01,ENE,70,3.5,3.5,62,0.00,CLR,OVC,0.00,WeatherDisplay:10.37,2013-07-30 18:59:00,
2013-07-30 15:04:00,85.5,71.4,30.01,ENE,70,3.5,3.5,63,0.00,CLR,OVC,0.00,WeatherDisplay:10.37,2013-07-30 19:04:00,
2013-07-30 15:09:00,85.5,70.0,30.01,ENE,70,3.5,3.5,60,0.00,CLR,OVC,0.00,WeatherDisplay:10.37,2013-07-30 19:09:00,
2013-07-30 15:14:00,85.5,71.4,30.00,ENE,70,3.5,3.5,63,0.00,CLR,OVC,0.00,WeatherDisplay:10.37,2013-07-30 19:14:00,
2013-07-30 15:19:00,85.3,71.7,30.01,ENE,70,0.0,0.0,64,0.00,CLR,OVC,0.00,WeatherDisplay:10.37,2013-07-30 19:19:00,
2013-07-30 15:24:00,85.6,71.6,30.01,ENE,70,0.0,0.0,63,0.00,CLR,OVC,0.00,WeatherDisplay:10.37,2013-07-30 19:24:00,
2013-07-30 15:29:00,85.6,71.6,30.00,ENE,70,0.0,0.0,63,0.00,CLR,OVC,0.00,WeatherDisplay:10.37,2013-07-30 19:29:00,
2013-07-30 15:34:00,85.6,71.6,30.00,ENE,70,0.0,0.0,63,0.00,CLR,OVC,0.00,WeatherDisplay:10.37,2013-07-30 19:34:00,
2013-07-30 15:39:00,85.6,72.1,29.99,ENE,70,0.0,0.0,64,0.00,CLR,OVC,0.00,WeatherDisplay:10.37,2013-07-30 19:39:00,
2013-07-30 15:44:00,85.6,72.1,30.00,ENE,70,0.0,0.0,64,0.00,CLR,OVC,0.00,WeatherDisplay:10.37,2013-07-30 19:44:00,
2013-07-30 15:49:00,85.6,72.1,30.00,ENE,70,0.0,0.0,64,0.00,CLR,OVC,0.00,WeatherDisplay:10.37,2013-07-30 19:49:00,
2013-07-30 15:54:00,85.8,71.8,29.99,ENE,70,0.0,0.0,63,0.00,CLR,OVC,0.00,WeatherDisplay:10.37,2013-07-30 19:54:00,
2013-07-30 15:59:00,85.8,69.8,29.99,ENE,70,0.0,0.0,59,0.00,CLR,OVC,0.00,WeatherDisplay:10.37,2013-07-30 19:59:00,
2013-07-30 16:04:00,85.8,70.8,29.99,ENE,70,0.0,0.0,61,0.00,CLR,OVC,0.00,WeatherDisplay:10.37,2013-07-30 20:04:00,
2013-07-30 16:09:00,85.8,71.8,29.99,ENE,70,0.0,0.0,63,0.00,CLR,OVC,0.00,WeatherDisplay:10.37,2013-07-30 20:09:00,
2013-07-30 16:14:00,85.5,71.4,29.99,ENE,70,0.0,0.0,63,0.00,CLR,OVC,0.00,WeatherDisplay:10.37,2013-07-30 20:14:00,
2013-07-30 16:19:00,85.3,71.7,29.99,South,170,4.6,4.6,64,0.00,CLR,OVC,0.00,WeatherDisplay:10.37,2013-07-30 20:19:00,
2013-07-30 16:24:00,85.3,71.7,29.99,South,170,4.6,4.6,64,0.00,CLR,OVC,0.00,WeatherDisplay:10.37,2013-07-30 20:24:00,
2013-07-30 16:29:00,84.9,71.4,29.99,South,170,4.6,4.6,64,0.00,CLR,OVC,0.00,WeatherDisplay:10.37,2013-07-30 20:29:00,
2013-07-30 16:34:00,84.7,71.7,29.98,South,170,4.6,4.6,65,0.00,CLR,OVC,0.00,WeatherDisplay:10.37,2013-07-30 20:34:00,
2013-07-30 16:39:00,84.7,71.7,29.98,South,170,4.6,4.6,65,0.00,CLR,OVC,0.00,WeatherDisplay:10.37,2013-07-30 20:39:00,
2013-07-30 16:44:00,84.7,72.1,29.98,South,170,4.6,4.6,66,0.00,CLR,OVC,0.00,WeatherDisplay:10.37,2013-07-30 20:44:00,
2013-07-30 16:49:00,84.9,72.3,29.98,South,170,4.6,4.6,66,0.00,CLR,OVC,0.00,WeatherDisplay:10.37,2013-07-30 20:49:00,
2013-07-30 16:54:00,84.7,72.1,29.99,South,170,4.6,4.6,66,0.00,CLR,OVC,0.00,WeatherDisplay:10.37,2013-07-30 20:54:00,
2013-07-30 16:59:00,84.6,71.9,29.98,South,170,4.6,4.6,66,0.00,CLR,OVC,0.00,WeatherDisplay:10.37,2013-07-30 20:59:00,
2013-07-30 17:04:00,84.6,71.9,29.98,South,170,4.6,4.6,66,0.00,CLR,OVC,0.00,WeatherDisplay:10.37,2013-07-30 21:04:00,
2013-07-30 17:09:00,84.4,71.8,29.98,South,170,4.6,4.6,66,0.00,CLR,OVC,0.00,WeatherDisplay:10.37,2013-07-30 21:09:00,
2013-07-30 17:14:00,84.4,72.2,29.98,South,170,4.6,4.6,67,0.00,CLR,OVC,0.00,WeatherDisplay:10.37,2013-07-30 21:14:00,
2013-07-30 17:19:00,84.0,71.9,29.98,South,170,4.6,4.6,67,0.00,CLR,OVC,0.00,WeatherDisplay:10.37,2013-07-30 21:19:00,
2013-07-30 17:24:00,83.8,71.7,29.98,South,170,4.6,4.6,67,0.00,CLR,OVC,0.00,WeatherDisplay:10.37,2013-07-30 21:24:00,
2013-07-30 17:29:00,83.5,71.4,29.98,South,170,4.6,4.6,67,0.00,CLR,OVC,0.00,WeatherDisplay:10.37,2013-07-30 21:29:00,
2013-07-30 17:34:00,83.5,71.8,29.97,South,170,4.6,4.6,68,0.00,CLR,OVC,0.00,WeatherDisplay:10.37,2013-07-30 21:34:00,
2013-07-30 17:39:00,83.5,72.2,29.97,South,170,4.6,4.6,69,0.00,CLR,OVC,0.00,WeatherDisplay:10.37,2013-07-30 21:39:00,
2013-07-30 17:44:00,83.5,72.2,29.97,South,170,4.6,4.6,69,0.00,CLR,OVC,0.00,WeatherDisplay:10.37,2013-07-30 21:44:00,
2013-07-30 17:49:00,83.1,71.9,29.97,South,170,4.6,4.6,69,0.00,CLR,OVC,0.00,WeatherDisplay:10.37,2013-07-30 21:49:00,
2013-07-30 17:54:00,82.9,71.7,29.97,South,170,4.6,4.6,69,0.00,CLR,OVC,0.00,WeatherDisplay:10.37,2013-07-30 21:54:00,
2013-07-30 17:59:00,82.9,71.7,29.97,South,170,4.6,4.6,69,0.00,CLR,OVC,0.00,WeatherDisplay:10.37,2013-07-30 21:59:00,
2013-07-30 18:04:00,82.6,71.8,29.97,South,170,4.6,4.6,70,0.00,CLR,OVC,0.00,WeatherDisplay:10.37,2013-07-30 22:04:00,
2013-07-30 18:09:00,82.2,71.5,29.97,South,170,4.6,4.6,70,0.00,CLR,OVC,0.00,WeatherDisplay:10.37,2013-07-30 22:09:00,
2013-07-30 18:14:00,82.0,71.3,29.97,South,170,4.6,4.6,70,0.00,CLR,OVC,0.00,WeatherDisplay:10.37,2013-07-30 22:14:00,
2013-07-30 18:19:00,82.0,72.1,29.97,South,190,4.6,4.6,72,0.00,CLR,OVC,0.00,WeatherDisplay:10.37,2013-07-30 22:19:00,
2013-07-30 18:24:00,81.5,71.6,29.97,South,190,4.6,4.6,72,0.00,CLR,OVC,0.00,WeatherDisplay:10.37,2013-07-30 22:24:00,
2013-07-30 18:29:00,81.5,72.0,29.97,South,190,4.6,4.6,73,0.00,CLR,OVC,0.00,WeatherDisplay:10.37,2013-07-30 22:29:00,
2013-07-30 18:34:00,81.3,71.8,29.97,South,190,4.6,4.6,73,0.00,CLR,OVC,0.00,WeatherDisplay:10.37,2013-07-30 22:34:00,
2013-07-30 18:39:00,81.0,71.5,29.97,South,190,4.6,4.6,73,0.00,CLR,OVC,0.00,WeatherDisplay:10.37,2013-07-30 22:39:00,
2013-07-30 18:44:00,80.8,71.7,29.97,South,190,4.6,4.6,74,0.00,CLR,OVC,0.00,WeatherDisplay:10.37,2013-07-30 22:44:00,
2013-07-30 18:49:00,80.8,72.1,29.97,South,190,4.6,4.6,75,0.00,CLR,OVC,0.00,WeatherDisplay:10.37,2013-07-30 22:49:00,
2013-07-30 18:54:00,80.4,71.8,29.97,South,190,4.6,4.6,75,0.00,CLR,OVC,0.00,WeatherDisplay:10.37,2013-07-30 22:54:00,
2013-07-30 18:59:00,80.4,72.2,29.97,South,190,4.6,4.6,76,0.00,CLR,OVC,0.00,WeatherDisplay:10.37,2013-07-30 22:59:00,
2013-07-30 19:04:00,80.4,72.2,29.96,South,190,4.6,4.6,76,0.00,CLR,OVC,0.00,WeatherDisplay:10.37,2013-07-30 23:04:00,
2013-07-30 19:09:00,80.2,72.4,29.96,South,190,4.6,4.6,77,0.00,CLR,OVC,0.00,WeatherDisplay:10.37,2013-07-30 23:09:00,
2013-07-30 19:14:00,80.2,72.4,29.97,South,190,4.6,4.6,77,0.00,CLR,OVC,0.00,WeatherDisplay:10.37,2013-07-30 23:14:00,
2013-07-30 19:19:00,80.2,72.8,29.97,South,190,4.6,4.6,78,0.00,CLR,OVC,0.00,WeatherDisplay:10.37,2013-07-30 23:19:00,
2013-07-30 19:24:00,80.1,72.6,29.96,South,190,4.6,4.6,78,0.00,CLR,OVC,0.00,WeatherDisplay:10.37,2013-07-30 23:24:00,
2013-07-30 19:29:00,79.9,72.4,29.96,South,190,4.6,4.6,78,0.00,CLR,OVC,0.00,WeatherDisplay:10.37,2013-07-30 23:29:00,
2013-07-30 19:34:00,79.9,72.4,29.96,South,190,4.6,4.6,78,0.00,CLR,OVC,0.00,WeatherDisplay:10.37,2013-07-30 23:34:00,
2013-07-30 19:39:00,79.5,72.4,29.96,South,190,4.6,4.6,79,0.00,CLR,OVC,0.00,WeatherDisplay:10.37,2013-07-30 23:39:00,
2013-07-30 19:44:00,79.5,72.4,29.96,South,190,4.6,4.6,79,0.00,CLR,OVC,0.00,WeatherDisplay:10.37,2013-07-30 23:44:00,
2013-07-30 19:49:00,79.5,72.4,29.96,South,190,4.6,4.6,79,0.00,CLR,OVC,0.00,WeatherDisplay:10.37,2013-07-30 23:49:00,
2013-07-30 19:54:00,79.3,72.3,29.96,South,190,4.6,4.6,79,0.00,CLR,OVC,0.00,WeatherDisplay:10.37,2013-07-30 23:54:00,
2013-07-30 19:59:00,79.2,72.1,29.96,South,190,4.6,4.6,79,0.00,CLR,OVC,0.00,WeatherDisplay:10.37,2013-07-30 23:59:00,
2013-07-30 20:04:00,79.0,71.9,29.96,South,190,4.6,4.6,79,0.00,CLR,OVC,0.00,WeatherDisplay:10.37,2013-07-31 00:04:00,
2013-07-30 20:09:00,78.6,71.9,29.97,South,190,4.6,4.6,80,0.00,CLR,OVC,0.00,WeatherDisplay:10.37,2013-07-31 00:09:00,
2013-07-30 20:14:00,78.6,71.9,29.97,South,190,4.6,4.6,80,0.00,CLR,OVC,0.00,WeatherDisplay:10.37,2013-07-31 00:14:00,
2013-07-30 20:19:00,78.4,71.8,29.97,SE,140,3.5,3.5,80,0.00,CLR,OVC,0.00,WeatherDisplay:10.37,2013-07-31 00:19:00,
2013-07-30 20:24:00,78.1,71.8,29.97,SE,140,3.5,3.5,81,0.00,CLR,OVC,0.00,WeatherDisplay:10.37,2013-07-31 00:24:00,
2013-07-30 20:29:00,78.1,71.8,29.97,SE,140,3.5,3.5,81,0.00,CLR,OVC,0.00,WeatherDisplay:10.37,2013-07-31 00:29:00,
2013-07-30 20:34:00,77.7,71.4,29.97,SE,140,3.5,3.5,81,0.00,CLR,OVC,0.00,WeatherDisplay:10.37,2013-07-31 00:34:00,
2013-07-30 20:39:00,77.5,71.6,29.97,SE,140,3.5,3.5,82,0.00,CLR,OVC,0.00,WeatherDisplay:10.37,2013-07-31 00:39:00,
2013-07-30 20:44:00,77.5,71.6,29.97,SE,140,3.5,3.5,82,0.00,CLR,OVC,0.00,WeatherDisplay:10.37,2013-07-31 00:44:00,
2013-07-30 20:49:00,77.4,71.4,29.98,SE,140,3.5,3.5,82,0.00,CLR,OVC,0.00,WeatherDisplay:10.37,2013-07-31 00:49:00,
2013-07-30 20:54:00,77.2,71.6,29.97,SE,140,3.5,3.5,83,0.00,CLR,OVC,0.00,WeatherDisplay:10.37,2013-07-31 00:54:00,
2013-07-30 20:59:00,77.0,71.4,29.97,SE,140,3.5,3.5,83,0.00,CLR,OVC,0.00,WeatherDisplay:10.37,2013-07-31 00:59:00,
2013-07-30 21:04:00,76.8,71.3,29.98,SE,140,3.5,3.5,83,0.00,CLR,OVC,0.00,WeatherDisplay:10.37,2013-07-31 01:04:00,
2013-07-30 21:09:00,76.8,71.3,29.98,SE,140,3.5,3.5,83,0.00,CLR,OVC,0.00,WeatherDisplay:10.37,2013-07-31 01:09:00,
2013-07-30 21:14:00,76.6,71.4,29.99,SE,140,3.5,3.5,84,0.00,CLR,OVC,0.00,WeatherDisplay:10.37,2013-07-31 01:14:00,
2013-07-30 21:19:00,76.6,71.4,29.99,SE,140,3.5,3.5,84,0.00,CLR,OVC,0.00,WeatherDisplay:10.37,2013-07-31 01:19:00,
2013-07-30 21:24:00,76.5,71.3,29.99,SE,140,3.5,3.5,84,0.00,CLR,OVC,0.00,WeatherDisplay:10.37,2013-07-31 01:24:00,
2013-07-30 21:29:00,76.3,71.1,29.99,SE,140,3.5,3.5,84,0.00,CLR,OVC,0.00,WeatherDisplay:10.37,2013-07-31 01:29:00,
2013-07-30 21:34:00,76.1,70.9,29.99,SE,140,3.5,3.5,84,0.00,CLR,OVC,0.00,WeatherDisplay:10.37,2013-07-31 01:34:00,
2013-07-30 21:39:00,75.9,71.1,29.99,SE,140,3.5,3.5,85,0.00,CLR,OVC,0.00,WeatherDisplay:10.37,2013-07-31 01:39:00,
2013-07-30 21:44:00,75.9,71.1,29.99,SE,140,3.5,3.5,85,0.00,CLR,OVC,0.00,WeatherDisplay:10.37,2013-07-31 01:44:00,
2013-07-30 21:49:00,75.9,71.1,29.99,SE,140,3.5,3.5,85,0.00,CLR,OVC,0.00,WeatherDisplay:10.37,2013-07-31 01:49:00,
2013-07-30 21:54:00,75.9,71.1,29.99,SE,140,3.5,3.5,85,0.00,CLR,OVC,0.00,WeatherDisplay:10.37,2013-07-31 01:54:00,
2013-07-30 21:59:00,75.7,71.3,29.99,SE,140,3.5,3.5,86,0.00,CLR,OVC,0.00,WeatherDisplay:10.37,2013-07-31 01:59:00,
2013-07-30 22:04:00,75.7,71.3,30.00,SE,140,3.5,3.5,86,0.00,CLR,OVC,0.00,WeatherDisplay:10.37,2013-07-31 02:04:00,
2013-07-30 22:09:00,75.7,71.3,29.99,SE,140,3.5,3.5,86,0.00,CLR,OVC,0.00,WeatherDisplay:10.37,2013-07-31 02:09:00,
2013-07-30 22:14:00,75.6,71.1,29.99,SE,140,3.5,3.5,86,0.00,CLR,OVC,0.00,WeatherDisplay:10.37,2013-07-31 02:14:00,
2013-07-30 22:19:00,75.4,70.9,30.00,SE,130,3.5,3.5,86,0.00,CLR,OVC,0.00,WeatherDisplay:10.37,2013-07-31 02:19:00,
2013-07-30 22:24:00,75.4,70.9,30.00,SE,130,3.5,3.5,86,0.00,CLR,OVC,0.00,WeatherDisplay:10.37,2013-07-31 02:24:00,
2013-07-30 22:29:00,75.4,70.9,30.00,SE,130,3.5,3.5,86,0.00,CLR,OVC,0.00,WeatherDisplay:10.37,2013-07-31 02:29:00,
2013-07-30 22:34:00,75.4,70.9,30.00,SE,130,3.5,3.5,86,0.00,CLR,OVC,0.00,WeatherDisplay:10.37,2013-07-31 02:34:00,
2013-07-30 22:39:00,75.0,70.5,30.00,SE,130,3.5,3.5,86,0.00,CLR,OVC,0.00,WeatherDisplay:10.37,2013-07-31 02:39:00,
2013-07-30 22:44:00,75.0,70.5,30.00,SE,130,3.5,3.5,86,0.00,CLR,OVC,0.00,WeatherDisplay:10.37,2013-07-31 02:44:00,
2013-07-30 22:49:00,75.0,70.5,30.00,SE,130,3.5,3.5,86,0.00,CLR,OVC,0.00,WeatherDisplay:10.37,2013-07-31 02:49:00,
2013-07-30 22:54:00,74.8,70.7,30.00,SE,130,3.5,3.5,87,0.00,CLR,OVC,0.00,WeatherDisplay:10.37,2013-07-31 02:54:00,
2013-07-30 22:59:00,74.8,70.7,30.00,SE,130,3.5,3.5,87,0.00,CLR,OVC,0.00,WeatherDisplay:10.37,2013-07-31 02:59:00,
2013-07-30 23:04:00,74.7,70.5,30.00,SE,130,3.5,3.5,87,0.00,CLR,OVC,0.00,WeatherDisplay:10.37,2013-07-31 03:04:00,
2013-07-30 23:09:00,74.5,70.4,30.00,SE,130,3.5,3.5,87,0.00,CLR,OVC,0.00,WeatherDisplay:10.37,2013-07-31 03:09:00,
2013-07-30 23:14:00,74.5,70.4,30.00,SE,130,3.5,3.5,87,0.00,CLR,OVC,0.00,WeatherDisplay:10.37,2013-07-31 03:14:00,
2013-07-30 23:19:00,74.3,70.2,30.00,SE,130,3.5,3.5,87,0.00,CLR,OVC,0.00,WeatherDisplay:10.37,2013-07-31 03:19:00,
2013-07-30 23:24:00,74.1,70.0,30.00,SE,130,3.5,3.5,87,0.00,CLR,OVC,0.00,WeatherDisplay:10.37,2013-07-31 03:24:00,
2013-07-30 23:29:00,74.1,70.3,30.00,SE,130,3.5,3.5,88,0.00,CLR,OVC,0.00,WeatherDisplay:10.37,2013-07-31 03:29:00,
2013-07-30 23:34:00,74.1,70.3,30.00,SE,130,3.5,3.5,88,0.00,CLR,OVC,0.00,WeatherDisplay:10.37,2013-07-31 03:34:00,
2013-07-30 23:39:00,73.9,70.2,30.00,SE,130,3.5,3.5,88,0.00,CLR,OVC,0.00,WeatherDisplay:10.37,2013-07-31 03:39:00,
2013-07-30 23:44:00,73.9,70.2,30.00,SE,130,3.5,3.5,88,0.00,CLR,OVC,0.00,WeatherDisplay:10.37,2013-07-31 03:44:00,
2013-07-30 23:49:00,73.9,70.2,29.99,SE,130,3.5,3.5,88,0.00,CLR,OVC,0.00,WeatherDisplay:10.37,2013-07-31 03:49:00,
2013-07-30 23:54:00,73.8,70.3,30.00,SE,130,3.5,3.5,89,0.00,CLR,OVC,0.00,WeatherDisplay:10.37,2013-07-31 03:54:00,
2013-07-30 23:59:00,73.8,70.0,30.00,SE,130,3.5,3.5,88,0.00,CLR,OVC,0.00,WeatherDisplay:10.37,2013-07-31 03:59:00,